< Typhoon 195106 1951 Season Typhoon 195108 >
Typhoon 195107 (NO-NAME)
General InformationTrack Information on Google Maps || Disaster Info.ResourceGoogle EarthGE AnimationAtom FeedGeoJSON
Detalied Best Track (Time Zone = UTC)
Year Month Day Hour Lat. Long. Pressure (hPa) Wind (kt) Class Image Chart
1951 7 1 18 25.0 122.6 1002 0 2 -- Chart
1951 7 2 00 25.2 123.6 1000 0 2 -- Chart
1951 7 2 06 25.5 124.7 998 0 2 -- Chart
1951 7 2 12 26.0 125.7 998 0 2 -- Chart
1951 7 2 18 26.4 126.6 997 0 9 -- Chart
1951 7 3 00 27.0 127.5 997 0 9 -- Chart
1951 7 3 06 27.6 129.0 995 0 9 -- Chart
1951 7 3 12 28.5 130.2 992 0 9 -- Chart
1951 7 3 18 29.0 131.0 992 0 9 -- Chart
1951 7 4 00 29.5 131.7 993 0 9 -- Chart
1951 7 4 06 30.0 132.3 995 0 9 -- Chart
1951 7 4 12 30.5 133.0 997 0 9 -- Chart
1951 7 4 18 32.0 134.5 997 0 9 -- Chart
1951 7 5 00 32.8 136.3 998 0 2 -- Chart
1951 7 5 06 33.5 139.2 998 0 2 -- Chart
1951 7 5 12 34.5 141.5 1000 0 2 -- Chart
1951 7 5 18 36.0 143.0 1000 0 2 -- Chart
1951 7 6 00 37.5 145.0 1002 0 2 -- Chart
1951 7 6 06 37.7 148.4 1002 0 2 -- Chart
1951 7 6 12 37.7 152.0 1002 0 2 -- Chart
1951 7 6 18 38.2 154.7 1004 0 2 -- Chart
1951 7 7 00 39.1 157.0 1005 0 2 -- Chart
1951 7 7 06 39.4 159.5 1007 0 2 -- Chart
1951 7 7 12 39.1 161.7 1008 0 2 -- Chart
1951 7 7 18 38.9 164.0 1010 0 2 -- Chart
1951 7 8 00 38.9 166.3 1012 0 2 -- Chart
1951 7 8 06 39.0 168.6 1010 0 2 -- Chart
1951 7 8 12 39.7 170.7 1012 0 2 -- Chart
1951 7 8 18 40.8 172.6 1010 0 2 -- Chart
1951 7 9 00 42.0 174.0 1012 0 2 -- Chart
1951 7 9 06 43.2 175.6 1010 0 2 -- Chart
1951 7 9 12 44.0 177.3 1010 0 2 -- Chart
1951 7 9 18 44.3 179.5 1010 0 2 -- Chart
1951 7 10 00 44.0 181.7 1010 0 2 -- Chart
Japan Meteorological Agency Best Track Data | Correction Date : 1991-07-16
< Typhoon 195106 1951 Season Typhoon 195108 >

Help